sensor_id;sensor_type;location;lat;lon;timestamp;temperature;humidity
423;DHT22;198;48.752;9.180;2023-03-08T00:00:05;3.80;67.00
423;DHT22;198;48.752;9.180;2023-03-08T00:02:31;3.80;67.40
423;DHT22;198;48.752;9.180;2023-03-08T00:04:56;3.80;67.50
423;DHT22;198;48.752;9.180;2023-03-08T00:07:22;3.80;67.60
423;DHT22;198;48.752;9.180;2023-03-08T00:09:47;4.00;67.40
423;DHT22;198;48.752;9.180;2023-03-08T00:12:13;4.00;67.20
423;DHT22;198;48.752;9.180;2023-03-08T00:14:39;4.10;67.50
423;DHT22;198;48.752;9.180;2023-03-08T00:17:05;4.10;67.30
423;DHT22;198;48.752;9.180;2023-03-08T00:19:30;4.10;67.20
423;DHT22;198;48.752;9.180;2023-03-08T00:21:56;4.10;67.40
423;DHT22;198;48.752;9.180;2023-03-08T00:24:22;4.10;67.50
423;DHT22;198;48.752;9.180;2023-03-08T00:26:48;4.10;67.50
423;DHT22;198;48.752;9.180;2023-03-08T00:29:13;4.10;67.60
423;DHT22;198;48.752;9.180;2023-03-08T00:31:39;4.20;67.70
423;DHT22;198;48.752;9.180;2023-03-08T00:34:04;4.20;67.80
423;DHT22;198;48.752;9.180;2023-03-08T00:36:30;4.10;68.00
423;DHT22;198;48.752;9.180;2023-03-08T00:38:56;4.10;68.20
423;DHT22;198;48.752;9.180;2023-03-08T00:41:22;4.00;68.40
423;DHT22;198;48.752;9.180;2023-03-08T00:43:48;4.00;68.50
423;DHT22;198;48.752;9.180;2023-03-08T00:46:14;4.00;68.70
423;DHT22;198;48.752;9.180;2023-03-08T00:48:41;4.00;68.80
423;DHT22;198;48.752;9.180;2023-03-08T00:51:07;4.00;69.00
423;DHT22;198;48.752;9.180;2023-03-08T00:53:33;4.00;69.00
423;DHT22;198;48.752;9.180;2023-03-08T00:55:59;4.00;69.30
423;DHT22;198;48.752;9.180;2023-03-08T00:58:27;3.90;69.30
423;DHT22;198;48.752;9.180;2023-03-08T01:00:53;3.90;69.30
423;DHT22;198;48.752;9.180;2023-03-08T01:03:19;3.90;69.30
423;DHT22;198;48.752;9.180;2023-03-08T01:05:49;4.00;69.60
423;DHT22;198;48.752;9.180;2023-03-08T01:08:16;4.00;69.40
423;DHT22;198;48.752;9.180;2023-03-08T01:10:56;3.90;69.70
423;DHT22;198;48.752;9.180;2023-03-08T01:13:22;3.90;69.70
423;DHT22;198;48.752;9.180;2023-03-08T01:15:48;3.90;70.10
423;DHT22;198;48.752;9.180;2023-03-08T01:18:14;3.90;70.30
423;DHT22;198;48.752;9.180;2023-03-08T01:20:40;3.90;70.50
423;DHT22;198;48.752;9.180;2023-03-08T01:23:05;3.90;70.60
423;DHT22;198;48.752;9.180;2023-03-08T01:25:31;3.90;71.00
423;DHT22;198;48.752;9.180;2023-03-08T01:27:56;3.90;71.10
423;DHT22;198;48.752;9.180;2023-03-08T01:30:22;3.90;71.20
423;DHT22;198;48.752;9.180;2023-03-08T01:32:47;3.90;71.20
423;DHT22;198;48.752;9.180;2023-03-08T01:35:13;3.80;71.40
423;DHT22;198;48.752;9.180;2023-03-08T01:37:38;3.70;71.50
423;DHT22;198;48.752;9.180;2023-03-08T01:40:05;3.70;71.90
423;DHT22;198;48.752;9.180;2023-03-08T01:42:31;3.70;72.20
423;DHT22;198;48.752;9.180;2023-03-08T01:44:59;3.60;72.30
423;DHT22;198;48.752;9.180;2023-03-08T01:47:28;3.60;72.50
423;DHT22;198;48.752;9.180;2023-03-08T01:49:56;3.60;72.80
423;DHT22;198;48.752;9.180;2023-03-08T01:52:32;3.50;73.20
423;DHT22;198;48.752;9.180;2023-03-08T01:55:02;3.50;73.50
423;DHT22;198;48.752;9.180;2023-03-08T01:57:31;3.40;73.80
423;DHT22;198;48.752;9.180;2023-03-08T02:00:03;3.40;74.10
423;DHT22;198;48.752;9.180;2023-03-08T02:02:34;3.30;74.20
423;DHT22;198;48.752;9.180;2023-03-08T02:05:01;3.30;74.50
423;DHT22;198;48.752;9.180;2023-03-08T02:07:26;3.20;74.50
423;DHT22;198;48.752;9.180;2023-03-08T02:09:52;3.20;74.70
423;DHT22;198;48.752;9.180;2023-03-08T02:12:18;3.20;75.00
423;DHT22;198;48.752;9.180;2023-03-08T02:14:44;3.20;75.20
423;DHT22;198;48.752;9.180;2023-03-08T02:17:10;3.20;75.20
423;DHT22;198;48.752;9.180;2023-03-08T02:19:54;3.20;75.40
423;DHT22;198;48.752;9.180;2023-03-08T02:22:21;3.30;75.50
423;DHT22;198;48.752;9.180;2023-03-08T02:24:47;3.30;75.50
423;DHT22;198;48.752;9.180;2023-03-08T02:27:17;3.30;75.70
423;DHT22;198;48.752;9.180;2023-03-08T02:29:43;3.30;75.50
423;DHT22;198;48.752;9.180;2023-03-08T02:32:09;3.30;75.20
423;DHT22;198;48.752;9.180;2023-03-08T02:34:35;3.30;75.30
423;DHT22;198;48.752;9.180;2023-03-08T02:37:01;3.40;75.20
423;DHT22;198;48.752;9.180;2023-03-08T02:39:26;3.30;75.30
423;DHT22;198;48.752;9.180;2023-03-08T02:41:52;3.30;75.40
423;DHT22;198;48.752;9.180;2023-03-08T02:44:17;3.20;75.40
423;DHT22;198;48.752;9.180;2023-03-08T02:46:43;3.20;75.80
423;DHT22;198;48.752;9.180;2023-03-08T02:49:08;3.30;75.60
423;DHT22;198;48.752;9.180;2023-03-08T02:51:34;3.30;75.70
423;DHT22;198;48.752;9.180;2023-03-08T02:53:59;3.30;75.60
423;DHT22;198;48.752;9.180;2023-03-08T02:56:25;3.30;75.90
423;DHT22;198;48.752;9.180;2023-03-08T02:58:50;3.30;75.70
423;DHT22;198;48.752;9.180;2023-03-08T03:01:16;3.40;75.90
423;DHT22;198;48.752;9.180;2023-03-08T03:03:41;3.40;75.60
423;DHT22;198;48.752;9.180;2023-03-08T03:06:18;3.40;75.50
423;DHT22;198;48.752;9.180;2023-03-08T03:08:44;3.40;75.40
423;DHT22;198;48.752;9.180;2023-03-08T03:11:15;3.50;75.50
423;DHT22;198;48.752;9.180;2023-03-08T03:13:41;3.50;75.40
423;DHT22;198;48.752;9.180;2023-03-08T03:16:11;3.50;75.20
423;DHT22;198;48.752;9.180;2023-03-08T03:18:37;3.50;75.00
423;DHT22;198;48.752;9.180;2023-03-08T03:21:04;3.50;75.10
423;DHT22;198;48.752;9.180;2023-03-08T03:23:30;3.60;75.20
423;DHT22;198;48.752;9.180;2023-03-08T03:25:55;3.60;74.90
423;DHT22;198;48.752;9.180;2023-03-08T03:28:21;3.60;74.70
423;DHT22;198;48.752;9.180;2023-03-08T03:30:47;3.60;74.90
423;DHT22;198;48.752;9.180;2023-03-08T03:33:12;3.60;74.90
423;DHT22;198;48.752;9.180;2023-03-08T03:35:38;3.50;74.80
423;DHT22;198;48.752;9.180;2023-03-08T03:38:04;3.50;74.70
423;DHT22;198;48.752;9.180;2023-03-08T03:40:30;3.60;74.60
423;DHT22;198;48.752;9.180;2023-03-08T03:42:55;3.60;74.20
423;DHT22;198;48.752;9.180;2023-03-08T03:45:20;3.60;73.90
423;DHT22;198;48.752;9.180;2023-03-08T03:47:46;3.70;73.90
423;DHT22;198;48.752;9.180;2023-03-08T03:50:12;3.70;73.70
423;DHT22;198;48.752;9.180;2023-03-08T03:52:38;3.70;73.50
423;DHT22;198;48.752;9.180;2023-03-08T03:55:04;3.70;73.10
423;DHT22;198;48.752;9.180;2023-03-08T03:57:30;3.70;73.10
423;DHT22;198;48.752;9.180;2023-03-08T03:59:55;3.70;73.20
423;DHT22;198;48.752;9.180;2023-03-08T04:02:21;3.70;73.10
423;DHT22;198;48.752;9.180;2023-03-08T04:04:48;3.80;73.00
423;DHT22;198;48.752;9.180;2023-03-08T04:07:15;3.80;73.00
423;DHT22;198;48.752;9.180;2023-03-08T04:09:41;3.80;73.20
423;DHT22;198;48.752;9.180;2023-03-08T04:12:06;3.80;73.20
423;DHT22;198;48.752;9.180;2023-03-08T04:14:32;3.90;73.00
423;DHT22;198;48.752;9.180;2023-03-08T04:16:57;3.90;72.80
423;DHT22;198;48.752;9.180;2023-03-08T04:19:23;3.90;72.90
423;DHT22;198;48.752;9.180;2023-03-08T04:21:48;3.90;72.60
423;DHT22;198;48.752;9.180;2023-03-08T04:24:14;3.80;72.80
423;DHT22;198;48.752;9.180;2023-03-08T04:26:39;3.90;73.00
423;DHT22;198;48.752;9.180;2023-03-08T04:29:05;3.90;73.00
423;DHT22;198;48.752;9.180;2023-03-08T04:31:32;3.80;73.00
423;DHT22;198;48.752;9.180;2023-03-08T04:33:59;3.80;73.30
423;DHT22;198;48.752;9.180;2023-03-08T04:36:25;3.80;73.30
423;DHT22;198;48.752;9.180;2023-03-08T04:38:51;3.80;73.40
423;DHT22;198;48.752;9.180;2023-03-08T04:41:17;3.70;73.60
423;DHT22;198;48.752;9.180;2023-03-08T04:43:48;3.70;73.60
423;DHT22;198;48.752;9.180;2023-03-08T04:46:14;3.70;73.80
423;DHT22;198;48.752;9.180;2023-03-08T04:48:40;3.80;73.80
423;DHT22;198;48.752;9.180;2023-03-08T04:51:07;3.80;73.90
423;DHT22;198;48.752;9.180;2023-03-08T04:53:34;3.80;73.90
423;DHT22;198;48.752;9.180;2023-03-08T04:56:00;3.80;73.90
423;DHT22;198;48.752;9.180;2023-03-08T04:58:27;3.90;73.90
423;DHT22;198;48.752;9.180;2023-03-08T05:00:53;3.90;73.80
423;DHT22;198;48.752;9.180;2023-03-08T05:03:18;3.90;73.80
423;DHT22;198;48.752;9.180;2023-03-08T05:05:49;3.90;74.00
423;DHT22;198;48.752;9.180;2023-03-08T05:08:15;4.00;74.00
423;DHT22;198;48.752;9.180;2023-03-08T05:11:07;4.00;73.80
423;DHT22;198;48.752;9.180;2023-03-08T05:13:35;4.10;73.80
423;DHT22;198;48.752;9.180;2023-03-08T05:16:03;4.10;73.70
423;DHT22;198;48.752;9.180;2023-03-08T05:18:29;4.20;73.70
423;DHT22;198;48.752;9.180;2023-03-08T05:21:03;4.20;73.60
423;DHT22;198;48.752;9.180;2023-03-08T05:23:29;4.20;73.60
423;DHT22;198;48.752;9.180;2023-03-08T05:25:57;4.20;73.60
423;DHT22;198;48.752;9.180;2023-03-08T05:28:25;4.20;73.60
423;DHT22;198;48.752;9.180;2023-03-08T05:31:03;4.20;73.70
423;DHT22;198;48.752;9.180;2023-03-08T05:33:29;4.20;73.80
423;DHT22;198;48.752;9.180;2023-03-08T05:35:55;4.20;73.80
423;DHT22;198;48.752;9.180;2023-03-08T05:38:21;4.20;73.90
423;DHT22;198;48.752;9.180;2023-03-08T05:40:47;4.30;73.60
423;DHT22;198;48.752;9.180;2023-03-08T05:43:13;4.30;73.50
423;DHT22;198;48.752;9.180;2023-03-08T05:45:39;4.30;73.60
423;DHT22;198;48.752;9.180;2023-03-08T05:48:05;4.40;73.40
423;DHT22;198;48.752;9.180;2023-03-08T05:50:30;4.40;73.40
423;DHT22;198;48.752;9.180;2023-03-08T05:52:56;4.40;72.90
423;DHT22;198;48.752;9.180;2023-03-08T05:55:21;4.40;73.10
423;DHT22;198;48.752;9.180;2023-03-08T05:57:47;4.50;73.30
423;DHT22;198;48.752;9.180;2023-03-08T06:00:13;4.40;73.40
423;DHT22;198;48.752;9.180;2023-03-08T06:02:39;4.50;73.60
423;DHT22;198;48.752;9.180;2023-03-08T06:05:04;4.50;73.80
423;DHT22;198;48.752;9.180;2023-03-08T06:07:30;4.60;74.00
423;DHT22;198;48.752;9.180;2023-03-08T06:09:55;4.60;73.80
423;DHT22;198;48.752;9.180;2023-03-08T06:12:21;4.70;73.90
423;DHT22;198;48.752;9.180;2023-03-08T06:14:46;4.70;74.00
423;DHT22;198;48.752;9.180;2023-03-08T06:17:12;4.70;74.20
423;DHT22;198;48.752;9.180;2023-03-08T06:19:37;4.80;74.30
423;DHT22;198;48.752;9.180;2023-03-08T06:22:03;4.80;74.40
423;DHT22;198;48.752;9.180;2023-03-08T06:24:28;4.80;74.40
423;DHT22;198;48.752;9.180;2023-03-08T06:26:54;4.80;74.50
423;DHT22;198;48.752;9.180;2023-03-08T06:29:20;4.90;74.50
423;DHT22;198;48.752;9.180;2023-03-08T06:31:46;4.90;74.50
423;DHT22;198;48.752;9.180;2023-03-08T06:34:12;4.90;74.30
423;DHT22;198;48.752;9.180;2023-03-08T06:36:37;5.00;74.50
423;DHT22;198;48.752;9.180;2023-03-08T06:39:03;5.00;74.30
423;DHT22;198;48.752;9.180;2023-03-08T06:41:31;5.00;74.30
423;DHT22;198;48.752;9.180;2023-03-08T06:43:57;5.00;74.30
423;DHT22;198;48.752;9.180;2023-03-08T06:46:22;5.10;74.50
423;DHT22;198;48.752;9.180;2023-03-08T06:48:48;5.10;74.80
423;DHT22;198;48.752;9.180;2023-03-08T06:51:14;5.00;74.00
423;DHT22;198;48.752;9.180;2023-03-08T06:53:40;5.10;73.70
423;DHT22;198;48.752;9.180;2023-03-08T06:56:07;5.10;73.80
423;DHT22;198;48.752;9.180;2023-03-08T06:58:36;5.10;73.50
423;DHT22;198;48.752;9.180;2023-03-08T07:01:02;5.20;73.50
423;DHT22;198;48.752;9.180;2023-03-08T07:03:31;5.30;73.20
423;DHT22;198;48.752;9.180;2023-03-08T07:06:08;5.30;72.80
423;DHT22;198;48.752;9.180;2023-03-08T07:08:35;5.40;72.40
423;DHT22;198;48.752;9.180;2023-03-08T07:11:00;5.40;71.80
423;DHT22;198;48.752;9.180;2023-03-08T07:13:26;5.50;71.90
423;DHT22;198;48.752;9.180;2023-03-08T07:15:53;5.50;71.50
423;DHT22;198;48.752;9.180;2023-03-08T07:18:19;5.50;71.30
423;DHT22;198;48.752;9.180;2023-03-08T07:20:44;5.60;71.20
423;DHT22;198;48.752;9.180;2023-03-08T07:23:10;5.70;71.20
423;DHT22;198;48.752;9.180;2023-03-08T07:25:37;5.70;71.20
423;DHT22;198;48.752;9.180;2023-03-08T07:28:04;5.70;70.90
423;DHT22;198;48.752;9.180;2023-03-08T07:30:29;5.80;71.20
423;DHT22;198;48.752;9.180;2023-03-08T07:32:55;5.80;71.20
423;DHT22;198;48.752;9.180;2023-03-08T07:35:20;5.90;71.10
423;DHT22;198;48.752;9.180;2023-03-08T07:37:46;5.90;70.90
423;DHT22;198;48.752;9.180;2023-03-08T07:40:13;6.00;71.00
423;DHT22;198;48.752;9.180;2023-03-08T07:42:39;6.00;71.20
423;DHT22;198;48.752;9.180;2023-03-08T07:45:05;6.10;71.40
423;DHT22;198;48.752;9.180;2023-03-08T07:47:30;6.10;71.60
423;DHT22;198;48.752;9.180;2023-03-08T07:49:56;6.10;71.50
423;DHT22;198;48.752;9.180;2023-03-08T07:52:26;6.10;72.00
423;DHT22;198;48.752;9.180;2023-03-08T07:54:52;6.10;72.20
423;DHT22;198;48.752;9.180;2023-03-08T07:57:17;6.10;72.70
423;DHT22;198;48.752;9.180;2023-03-08T07:59:43;6.10;73.40
423;DHT22;198;48.752;9.180;2023-03-08T08:02:13;6.00;74.90
423;DHT22;198;48.752;9.180;2023-03-08T08:04:39;6.00;76.50
423;DHT22;198;48.752;9.180;2023-03-08T08:07:09;6.00;77.70
423;DHT22;198;48.752;9.180;2023-03-08T08:09:35;6.00;78.40
423;DHT22;198;48.752;9.180;2023-03-08T08:12:02;6.10;78.80
423;DHT22;198;48.752;9.180;2023-03-08T08:14:27;6.20;78.80
423;DHT22;198;48.752;9.180;2023-03-08T08:16:53;6.20;79.70
423;DHT22;198;48.752;9.180;2023-03-08T08:19:18;6.40;80.20
423;DHT22;198;48.752;9.180;2023-03-08T08:21:44;6.50;80.50
423;DHT22;198;48.752;9.180;2023-03-08T08:24:10;6.50;80.10
423;DHT22;198;48.752;9.180;2023-03-08T08:26:36;6.50;80.80
423;DHT22;198;48.752;9.180;2023-03-08T08:29:02;6.60;80.70
423;DHT22;198;48.752;9.180;2023-03-08T08:31:28;6.60;81.00
423;DHT22;198;48.752;9.180;2023-03-08T08:33:57;6.60;81.10
423;DHT22;198;48.752;9.180;2023-03-08T08:36:24;6.70;81.10
423;DHT22;198;48.752;9.180;2023-03-08T08:38:50;6.70;81.20
423;DHT22;198;48.752;9.180;2023-03-08T08:41:17;6.80;80.90
423;DHT22;198;48.752;9.180;2023-03-08T08:43:44;6.80;81.20
423;DHT22;198;48.752;9.180;2023-03-08T08:46:10;6.80;80.90
423;DHT22;198;48.752;9.180;2023-03-08T08:48:36;6.90;81.20
423;DHT22;198;48.752;9.180;2023-03-08T08:51:03;6.90;81.20
423;DHT22;198;48.752;9.180;2023-03-08T08:53:29;7.00;81.30
423;DHT22;198;48.752;9.180;2023-03-08T08:55:55;7.00;82.00
423;DHT22;198;48.752;9.180;2023-03-08T08:58:20;6.90;82.10
423;DHT22;198;48.752;9.180;2023-03-08T09:00:47;7.00;82.60
423;DHT22;198;48.752;9.180;2023-03-08T09:03:12;7.00;80.90
423;DHT22;198;48.752;9.180;2023-03-08T09:05:40;7.00;81.00
423;DHT22;198;48.752;9.180;2023-03-08T09:08:06;7.00;80.90
423;DHT22;198;48.752;9.180;2023-03-08T09:10:35;7.10;81.00
423;DHT22;198;48.752;9.180;2023-03-08T09:13:01;7.00;79.20
423;DHT22;198;48.752;9.180;2023-03-08T09:15:27;6.90;79.30
423;DHT22;198;48.752;9.180;2023-03-08T09:17:52;7.00;79.80
423;DHT22;198;48.752;9.180;2023-03-08T09:20:18;6.90;79.60
423;DHT22;198;48.752;9.180;2023-03-08T09:22:44;6.90;79.80
423;DHT22;198;48.752;9.180;2023-03-08T09:25:11;6.90;80.70
423;DHT22;198;48.752;9.180;2023-03-08T09:27:38;7.00;81.00
423;DHT22;198;48.752;9.180;2023-03-08T09:30:07;6.90;80.50
423;DHT22;198;48.752;9.180;2023-03-08T09:32:33;6.90;81.20
423;DHT22;198;48.752;9.180;2023-03-08T09:34:59;6.90;81.30
423;DHT22;198;48.752;9.180;2023-03-08T09:37:25;7.00;81.00
423;DHT22;198;48.752;9.180;2023-03-08T09:39:51;6.90;81.20
423;DHT22;198;48.752;9.180;2023-03-08T09:42:22;7.00;81.80
423;DHT22;198;48.752;9.180;2023-03-08T09:45:11;7.10;80.00
423;DHT22;198;48.752;9.180;2023-03-08T09:47:40;7.10;80.10
423;DHT22;198;48.752;9.180;2023-03-08T09:52:55;7.30;80.10
423;DHT22;198;48.752;9.180;2023-03-08T09:55:27;7.40;80.30
423;DHT22;198;48.752;9.180;2023-03-08T09:58:04;7.60;81.00
423;DHT22;198;48.752;9.180;2023-03-08T10:00:36;7.60;80.60
423;DHT22;198;48.752;9.180;2023-03-08T10:09:24;8.00;80.40
423;DHT22;198;48.752;9.180;2023-03-08T10:12:18;8.20;81.50
423;DHT22;198;48.752;9.180;2023-03-08T10:14:49;8.40;81.40
423;DHT22;198;48.752;9.180;2023-03-08T10:17:19;8.50;82.80
423;DHT22;198;48.752;9.180;2023-03-08T10:20:04;8.60;83.10
423;DHT22;198;48.752;9.180;2023-03-08T10:22:33;8.50;85.80
423;DHT22;198;48.752;9.180;2023-03-08T10:25:24;8.30;89.00
423;DHT22;198;48.752;9.180;2023-03-08T10:27:54;8.20;91.10
423;DHT22;198;48.752;9.180;2023-03-08T10:30:23;8.20;92.60
423;DHT22;198;48.752;9.180;2023-03-08T10:32:54;8.20;93.10
423;DHT22;198;48.752;9.180;2023-03-08T10:35:34;8.10;94.60
423;DHT22;198;48.752;9.180;2023-03-08T10:38:02;8.30;95.50
423;DHT22;198;48.752;9.180;2023-03-08T10:40:28;8.50;95.70
423;DHT22;198;48.752;9.180;2023-03-08T10:42:57;8.50;96.30
423;DHT22;198;48.752;9.180;2023-03-08T10:45:26;8.60;97.80
423;DHT22;198;48.752;9.180;2023-03-08T10:47:55;8.70;98.40
423;DHT22;198;48.752;9.180;2023-03-08T10:50:26;9.00;98.50
423;DHT22;198;48.752;9.180;2023-03-08T10:52:52;9.70;97.40
423;DHT22;198;48.752;9.180;2023-03-08T10:55:21;10.40;95.30
423;DHT22;198;48.752;9.180;2023-03-08T10:57:58;11.40;93.40
423;DHT22;198;48.752;9.180;2023-03-08T11:05:35;11.70;91.20
423;DHT22;198;48.752;9.180;2023-03-08T11:08:01;12.00;90.90
423;DHT22;198;48.752;9.180;2023-03-08T11:10:28;11.80;90.80
423;DHT22;198;48.752;9.180;2023-03-08T11:13:19;11.60;91.40
423;DHT22;198;48.752;9.180;2023-03-08T11:15:51;11.30;92.60
423;DHT22;198;48.752;9.180;2023-03-08T11:18:32;11.20;93.40
423;DHT22;198;48.752;9.180;2023-03-08T11:21:09;11.30;94.20
423;DHT22;198;48.752;9.180;2023-03-08T11:23:46;11.30;94.00
423;DHT22;198;48.752;9.180;2023-03-08T11:26:39;11.00;94.60
423;DHT22;198;48.752;9.180;2023-03-08T11:29:14;10.70;96.20
423;DHT22;198;48.752;9.180;2023-03-08T11:40:18;10.20;99.90
423;DHT22;198;48.752;9.180;2023-03-08T11:51:31;10.30;99.90
423;DHT22;198;48.752;9.180;2023-03-08T11:54:15;10.40;99.90
423;DHT22;198;48.752;9.180;2023-03-08T11:57:02;10.40;99.90
423;DHT22;198;48.752;9.180;2023-03-08T11:59:34;10.30;99.90
423;DHT22;198;48.752;9.180;2023-03-08T12:04:40;10.30;99.90
423;DHT22;198;48.752;9.180;2023-03-08T12:07:23;10.30;99.90
423;DHT22;198;48.752;9.180;2023-03-08T12:10:07;10.30;99.90
423;DHT22;198;48.752;9.180;2023-03-08T12:12:44;10.30;99.90
423;DHT22;198;48.752;9.180;2023-03-08T12:15:26;10.20;99.90
423;DHT22;198;48.752;9.180;2023-03-08T12:17:58;10.30;99.90
423;DHT22;198;48.752;9.180;2023-03-08T12:20:30;10.30;99.90
423;DHT22;198;48.752;9.180;2023-03-08T12:25:44;10.40;99.90
423;DHT22;198;48.752;9.180;2023-03-08T12:28:16;10.50;99.90
423;DHT22;198;48.752;9.180;2023-03-08T12:33:38;10.50;99.90
423;DHT22;198;48.752;9.180;2023-03-08T12:36:05;10.50;99.90
423;DHT22;198;48.752;9.180;2023-03-08T12:38:35;10.60;99.90
423;DHT22;198;48.752;9.180;2023-03-08T12:41:02;10.60;99.90
423;DHT22;198;48.752;9.180;2023-03-08T12:43:30;10.70;99.90
423;DHT22;198;48.752;9.180;2023-03-08T12:50:57;11.40;99.90
423;DHT22;198;48.752;9.180;2023-03-08T12:58:55;11.90;99.90
423;DHT22;198;48.752;9.180;2023-03-08T13:03:59;12.10;99.90
423;DHT22;198;48.752;9.180;2023-03-08T13:09:24;11.90;99.90
423;DHT22;198;48.752;9.180;2023-03-08T13:17:39;11.60;99.90
423;DHT22;198;48.752;9.180;2023-03-08T13:20:21;11.90;99.90
423;DHT22;198;48.752;9.180;2023-03-08T13:23:01;12.10;99.90
423;DHT22;198;48.752;9.180;2023-03-08T13:28:04;12.10;99.90
423;DHT22;198;48.752;9.180;2023-03-08T13:31:15;12.20;99.90
423;DHT22;198;48.752;9.180;2023-03-08T13:33:24;12.40;99.90
423;DHT22;198;48.752;9.180;2023-03-08T13:36:02;12.30;99.90
423;DHT22;198;48.752;9.180;2023-03-08T13:38:31;12.10;99.90
423;DHT22;198;48.752;9.180;2023-03-08T13:40:58;12.10;99.90
423;DHT22;198;48.752;9.180;2023-03-08T13:43:26;12.30;99.90
423;DHT22;198;48.752;9.180;2023-03-08T13:45:54;12.50;99.90
423;DHT22;198;48.752;9.180;2023-03-08T13:48:22;12.80;99.90
423;DHT22;198;48.752;9.180;2023-03-08T13:50:50;13.00;99.90
423;DHT22;198;48.752;9.180;2023-03-08T13:53:19;12.90;99.90
423;DHT22;198;48.752;9.180;2023-03-08T13:55:47;13.00;99.90
423;DHT22;198;48.752;9.180;2023-03-08T13:58:29;12.80;99.90
423;DHT22;198;48.752;9.180;2023-03-08T14:03:31;13.00;99.90
423;DHT22;198;48.752;9.180;2023-03-08T14:05:56;13.10;99.90
423;DHT22;198;48.752;9.180;2023-03-08T14:08:26;13.50;99.90
423;DHT22;198;48.752;9.180;2023-03-08T14:10:58;13.60;98.70
423;DHT22;198;48.752;9.180;2023-03-08T14:13:36;13.70;97.90
423;DHT22;198;48.752;9.180;2023-03-08T14:16:04;13.50;97.90
423;DHT22;198;48.752;9.180;2023-03-08T14:18:38;13.50;98.20
423;DHT22;198;48.752;9.180;2023-03-08T14:21:18;13.40;98.00
423;DHT22;198;48.752;9.180;2023-03-08T14:23:53;13.10;98.60
423;DHT22;198;48.752;9.180;2023-03-08T14:31:36;12.80;99.50
423;DHT22;198;48.752;9.180;2023-03-08T14:34:14;12.50;99.90
423;DHT22;198;48.752;9.180;2023-03-08T14:36:47;12.50;99.90
423;DHT22;198;48.752;9.180;2023-03-08T14:39:18;12.50;99.90
423;DHT22;198;48.752;9.180;2023-03-08T14:41:44;12.40;99.90
423;DHT22;198;48.752;9.180;2023-03-08T14:44:18;12.40;99.90
423;DHT22;198;48.752;9.180;2023-03-08T14:46:44;12.40;99.90
423;DHT22;198;48.752;9.180;2023-03-08T14:49:20;12.40;99.90
423;DHT22;198;48.752;9.180;2023-03-08T14:51:45;12.20;99.90
423;DHT22;198;48.752;9.180;2023-03-08T14:54:27;12.30;99.90
423;DHT22;198;48.752;9.180;2023-03-08T14:56:53;12.30;99.90
423;DHT22;198;48.752;9.180;2023-03-08T14:59:18;12.30;99.90
423;DHT22;198;48.752;9.180;2023-03-08T15:01:46;12.50;99.90
423;DHT22;198;48.752;9.180;2023-03-08T15:04:23;12.30;99.90
423;DHT22;198;48.752;9.180;2023-03-08T15:06:51;12.20;99.90
423;DHT22;198;48.752;9.180;2023-03-08T15:09:19;12.20;99.90
423;DHT22;198;48.752;9.180;2023-03-08T15:11:47;12.10;99.90
423;DHT22;198;48.752;9.180;2023-03-08T15:14:14;12.10;99.90
423;DHT22;198;48.752;9.180;2023-03-08T15:16:40;12.10;99.90
423;DHT22;198;48.752;9.180;2023-03-08T15:19:06;12.10;99.90
423;DHT22;198;48.752;9.180;2023-03-08T15:21:33;12.10;99.90
423;DHT22;198;48.752;9.180;2023-03-08T15:24:01;12.20;99.90
423;DHT22;198;48.752;9.180;2023-03-08T15:26:30;12.20;99.90
423;DHT22;198;48.752;9.180;2023-03-08T15:28:56;12.30;99.90
423;DHT22;198;48.752;9.180;2023-03-08T15:31:21;12.40;99.90
423;DHT22;198;48.752;9.180;2023-03-08T15:33:47;12.70;99.90
423;DHT22;198;48.752;9.180;2023-03-08T15:36:15;12.80;99.90
423;DHT22;198;48.752;9.180;2023-03-08T15:38:41;12.70;99.90
423;DHT22;198;48.752;9.180;2023-03-08T15:41:14;12.60;99.90
423;DHT22;198;48.752;9.180;2023-03-08T15:43:40;12.50;99.90
423;DHT22;198;48.752;9.180;2023-03-08T15:46:10;12.40;99.90
423;DHT22;198;48.752;9.180;2023-03-08T15:48:36;12.30;99.90
423;DHT22;198;48.752;9.180;2023-03-08T15:51:02;12.20;99.90
423;DHT22;198;48.752;9.180;2023-03-08T15:53:27;12.00;99.90
423;DHT22;198;48.752;9.180;2023-03-08T15:55:54;11.90;99.90
423;DHT22;198;48.752;9.180;2023-03-08T15:58:20;12.00;99.90
423;DHT22;198;48.752;9.180;2023-03-08T16:00:46;12.00;99.90
423;DHT22;198;48.752;9.180;2023-03-08T16:03:12;11.90;99.90
423;DHT22;198;48.752;9.180;2023-03-08T16:05:38;11.80;99.90
423;DHT22;198;48.752;9.180;2023-03-08T16:08:04;11.70;99.90
423;DHT22;198;48.752;9.180;2023-03-08T16:10:32;11.80;99.90
423;DHT22;198;48.752;9.180;2023-03-08T16:13:05;11.70;99.90
423;DHT22;198;48.752;9.180;2023-03-08T16:15:30;11.70;99.90
423;DHT22;198;48.752;9.180;2023-03-08T16:17:56;11.70;99.90
423;DHT22;198;48.752;9.180;2023-03-08T16:20:21;11.70;99.90
423;DHT22;198;48.752;9.180;2023-03-08T16:22:47;11.70;99.90
423;DHT22;198;48.752;9.180;2023-03-08T16:25:14;11.70;99.90
423;DHT22;198;48.752;9.180;2023-03-08T16:27:39;11.70;99.90
423;DHT22;198;48.752;9.180;2023-03-08T16:30:05;11.50;99.90
423;DHT22;198;48.752;9.180;2023-03-08T16:32:31;11.30;99.90
423;DHT22;198;48.752;9.180;2023-03-08T16:34:58;11.20;99.90
423;DHT22;198;48.752;9.180;2023-03-08T16:37:24;11.20;99.90
423;DHT22;198;48.752;9.180;2023-03-08T16:39:51;11.20;99.90
423;DHT22;198;48.752;9.180;2023-03-08T16:42:18;11.20;99.90
423;DHT22;198;48.752;9.180;2023-03-08T16:44:49;11.20;99.90
423;DHT22;198;48.752;9.180;2023-03-08T16:47:15;11.10;99.90
423;DHT22;198;48.752;9.180;2023-03-08T16:49:40;11.10;99.90
423;DHT22;198;48.752;9.180;2023-03-08T16:52:06;10.80;99.90
423;DHT22;198;48.752;9.180;2023-03-08T16:54:31;10.60;99.90
423;DHT22;198;48.752;9.180;2023-03-08T16:56:57;10.40;99.90
423;DHT22;198;48.752;9.180;2023-03-08T16:59:22;10.20;99.90
423;DHT22;198;48.752;9.180;2023-03-08T17:01:48;10.10;99.90
423;DHT22;198;48.752;9.180;2023-03-08T17:04:14;10.10;99.90
423;DHT22;198;48.752;9.180;2023-03-08T17:06:42;10.00;99.90
423;DHT22;198;48.752;9.180;2023-03-08T17:09:09;10.00;99.90
423;DHT22;198;48.752;9.180;2023-03-08T17:11:35;10.00;99.90
423;DHT22;198;48.752;9.180;2023-03-08T17:14:04;10.00;99.90
423;DHT22;198;48.752;9.180;2023-03-08T17:16:31;10.00;99.90
423;DHT22;198;48.752;9.180;2023-03-08T17:18:58;10.00;99.90
423;DHT22;198;48.752;9.180;2023-03-08T17:21:24;10.00;99.90
423;DHT22;198;48.752;9.180;2023-03-08T17:23:51;10.10;99.90
423;DHT22;198;48.752;9.180;2023-03-08T17:26:19;10.10;99.90
423;DHT22;198;48.752;9.180;2023-03-08T17:28:47;10.20;99.90
423;DHT22;198;48.752;9.180;2023-03-08T17:31:14;10.20;99.90
423;DHT22;198;48.752;9.180;2023-03-08T17:33:41;10.20;99.90
423;DHT22;198;48.752;9.180;2023-03-08T17:36:07;10.20;99.90
423;DHT22;198;48.752;9.180;2023-03-08T17:38:33;10.30;99.90
423;DHT22;198;48.752;9.180;2023-03-08T17:41:03;10.30;99.90
423;DHT22;198;48.752;9.180;2023-03-08T17:43:28;10.30;99.90
423;DHT22;198;48.752;9.180;2023-03-08T17:45:58;10.30;99.90
423;DHT22;198;48.752;9.180;2023-03-08T17:48:23;10.30;99.90
423;DHT22;198;48.752;9.180;2023-03-08T17:50:49;10.30;99.90
423;DHT22;198;48.752;9.180;2023-03-08T17:53:15;10.20;99.90
423;DHT22;198;48.752;9.180;2023-03-08T17:55:42;10.30;99.90
423;DHT22;198;48.752;9.180;2023-03-08T17:58:08;10.30;99.90
423;DHT22;198;48.752;9.180;2023-03-08T18:00:33;10.30;99.90
423;DHT22;198;48.752;9.180;2023-03-08T18:02:59;10.30;99.90